createdAt,value
2022-11-06T00:00:39.137Z,995.36
2022-11-06T00:01:39.184Z,995.36
2022-11-06T00:02:39.192Z,995.33
2022-11-06T00:03:39.119Z,995.38
2022-11-06T00:04:39.124Z,995.43
2022-11-06T00:05:39.099Z,995.46
2022-11-06T00:06:39.102Z,995.41
2022-11-06T00:07:39.084Z,995.38
2022-11-06T00:08:39.077Z,995.44
2022-11-06T00:09:39.104Z,995.38
2022-11-06T00:10:39.076Z,995.42
2022-11-06T00:11:39.060Z,995.40
2022-11-06T00:12:39.055Z,995.38
2022-11-06T00:13:39.036Z,995.34
2022-11-06T00:14:39.060Z,995.39
2022-11-06T00:15:39.045Z,995.32
2022-11-06T00:16:39.014Z,995.30
2022-11-06T00:17:39.027Z,995.29
2022-11-06T00:18:39.012Z,995.26
2022-11-06T00:19:39.032Z,995.26
2022-11-06T00:20:38.994Z,995.34
2022-11-06T00:21:38.992Z,995.23
2022-11-06T00:22:38.987Z,995.26
2022-11-06T00:23:38.983Z,995.27
2022-11-06T00:24:38.991Z,995.25
2022-11-06T00:25:38.969Z,995.23
2022-11-06T00:26:38.958Z,995.20
2022-11-06T00:27:38.959Z,995.21
2022-11-06T00:28:38.944Z,995.23
2022-11-06T00:29:38.938Z,995.17
2022-11-06T00:30:38.949Z,995.21
2022-11-06T00:31:38.915Z,995.26
2022-11-06T00:32:38.923Z,995.12
2022-11-06T00:33:38.911Z,995.17
2022-11-06T00:34:39.575Z,995.17
2022-11-06T00:35:38.911Z,995.27
2022-11-06T00:36:38.895Z,995.10
2022-11-06T00:37:38.892Z,995.06
2022-11-06T00:38:38.879Z,995.17
2022-11-06T00:39:38.879Z,995.14
2022-11-06T00:40:38.866Z,995.11
2022-11-06T00:41:38.870Z,995.26
2022-11-06T00:42:38.866Z,995.17
2022-11-06T00:43:38.874Z,995.20
2022-11-06T00:44:38.852Z,995.17
2022-11-06T00:45:38.916Z,995.14
2022-11-06T00:46:38.839Z,995.12
2022-11-06T00:47:38.803Z,995.22
2022-11-06T00:48:39.823Z,995.13
2022-11-06T00:49:38.819Z,995.12
2022-11-06T00:50:38.802Z,995.14
2022-11-06T00:51:38.809Z,995.32
2022-11-06T00:52:38.794Z,995.12
2022-11-06T00:53:38.788Z,995.39
2022-11-06T00:54:38.774Z,995.25
2022-11-06T00:55:38.772Z,995.23
2022-11-06T00:56:38.772Z,995.18
2022-11-06T00:57:38.759Z,995.18
2022-11-06T00:58:38.755Z,995.14
2022-11-06T00:59:38.755Z,995.13
2022-11-06T01:00:38.735Z,995.10
2022-11-06T01:01:38.884Z,995.13
2022-11-06T01:02:38.912Z,995.10
2022-11-06T01:03:38.710Z,995.00
2022-11-06T01:04:38.710Z,995.02
2022-11-06T01:05:38.690Z,995.00
2022-11-06T01:06:39.706Z,995.02
2022-11-06T01:07:38.696Z,995.01
2022-11-06T01:08:38.691Z,995.01
2022-11-06T01:09:38.749Z,995.01
2022-11-06T01:10:38.678Z,995.02
2022-11-06T01:12:06.920Z,994.94
2022-11-06T01:12:40.664Z,994.97
2022-11-06T01:13:38.659Z,994.99
2022-11-06T01:14:38.674Z,994.98
2022-11-06T01:15:38.642Z,994.93
2022-11-06T01:16:38.639Z,994.99
2022-11-06T01:17:38.619Z,994.94
2022-11-06T01:18:38.611Z,994.96
2022-11-06T01:19:38.626Z,994.98
2022-11-06T01:20:38.615Z,995.03
2022-11-06T01:21:38.600Z,995.00
2022-11-06T01:22:38.590Z,995.03
2022-11-06T01:23:38.584Z,995.00
2022-11-06T01:24:38.627Z,995.08
2022-11-06T01:25:38.587Z,995.05
2022-11-06T01:26:42.723Z,995.05
2022-11-06T01:27:40.567Z,995.06
2022-11-06T01:28:38.567Z,995.09
2022-11-06T01:29:38.562Z,995.06
2022-11-06T01:30:38.556Z,995.02
2022-11-06T01:31:38.556Z,995.03
2022-11-06T01:32:38.530Z,995.02
2022-11-06T01:33:38.603Z,995.04
2022-11-06T01:34:38.519Z,995.06
2022-11-06T01:35:38.580Z,995.03
2022-11-06T01:36:38.499Z,995.03
2022-11-06T01:37:38.491Z,995.05
2022-11-06T01:38:38.486Z,995.10
2022-11-06T01:39:38.486Z,995.03
2022-11-06T01:40:38.495Z,995.02
2022-11-06T01:41:38.470Z,995.05
2022-11-06T01:42:38.467Z,995.01
2022-11-06T01:43:38.471Z,994.94
2022-11-06T01:44:38.451Z,995.03
2022-11-06T01:45:38.454Z,994.94
2022-11-06T01:46:38.444Z,994.94
2022-11-06T01:47:38.430Z,994.90
2022-11-06T01:48:38.414Z,994.99
2022-11-06T01:49:38.414Z,994.96
2022-11-06T01:50:38.451Z,994.93
2022-11-06T01:51:38.407Z,994.95
2022-11-06T01:52:38.407Z,994.95
2022-11-06T01:53:38.390Z,994.99
2022-11-06T01:54:38.394Z,994.89
2022-11-06T01:55:38.392Z,994.96
2022-11-06T01:56:38.362Z,994.92
2022-11-06T01:57:38.371Z,994.96
2022-11-06T01:58:38.354Z,994.98
2022-11-06T01:59:38.359Z,995.00
2022-11-06T02:00:38.338Z,995.01
2022-11-06T02:01:38.465Z,995.01
2022-11-06T02:02:38.479Z,994.94
2022-11-06T02:03:38.323Z,994.88
2022-11-06T02:04:38.329Z,994.96
2022-11-06T02:05:38.314Z,994.93
2022-11-06T02:06:38.327Z,994.98
2022-11-06T02:07:38.309Z,994.90
2022-11-06T02:08:38.289Z,995.04
2022-11-06T02:09:38.287Z,995.07
2022-11-06T02:10:38.274Z,994.94
2022-11-06T02:11:39.294Z,995.23
2022-11-06T02:12:38.260Z,994.97
2022-11-06T02:13:38.264Z,995.10
2022-11-06T02:14:38.259Z,994.99
2022-11-06T02:15:38.242Z,994.99
2022-11-06T02:16:38.242Z,994.91
2022-11-06T02:17:38.237Z,995.04
2022-11-06T02:18:38.227Z,995.06
2022-11-06T02:19:38.227Z,995.12
2022-11-06T02:20:38.258Z,995.01
2022-11-06T02:21:38.210Z,995.06
2022-11-06T02:22:38.205Z,994.99
2022-11-06T02:23:38.194Z,994.97
2022-11-06T02:24:38.179Z,994.99
2022-11-06T02:25:38.181Z,994.90
2022-11-06T02:26:38.178Z,994.96
2022-11-06T02:27:38.171Z,994.80
2022-11-06T02:28:38.182Z,994.81
2022-11-06T02:29:38.153Z,994.81
2022-11-06T02:30:38.150Z,994.97
2022-11-06T02:31:38.154Z,994.73
2022-11-06T02:32:38.135Z,994.75
2022-11-06T02:33:38.244Z,994.83
2022-11-06T02:34:38.128Z,994.87
2022-11-06T02:35:38.114Z,994.79
2022-11-06T02:36:38.108Z,994.70
2022-11-06T02:37:38.108Z,994.77
2022-11-06T02:38:38.091Z,994.79
2022-11-06T02:39:38.095Z,994.78
2022-11-06T02:40:38.098Z,994.68
2022-11-06T02:41:38.075Z,994.67
2022-11-06T02:42:38.076Z,994.65
2022-11-06T02:43:38.071Z,994.72
2022-11-06T02:44:38.059Z,994.73
2022-11-06T02:45:38.076Z,994.77
2022-11-06T02:46:38.055Z,994.74
2022-11-06T02:47:38.035Z,994.72
2022-11-06T02:48:38.038Z,994.98
2022-11-06T02:49:38.036Z,994.70
2022-11-06T02:50:38.019Z,994.70
2022-11-06T02:51:38.010Z,994.74
2022-11-06T02:52:38.015Z,994.74
2022-11-06T02:53:38.004Z,994.65
2022-11-06T02:54:37.983Z,994.67
2022-11-06T02:55:38.012Z,994.70
2022-11-06T02:56:37.968Z,994.66
2022-11-06T02:57:38.979Z,994.63
2022-11-06T02:58:39.213Z,994.64
2022-11-06T02:59:38.962Z,994.57
2022-11-06T03:00:37.958Z,994.61
2022-11-06T03:01:38.056Z,994.67
2022-11-06T03:02:38.224Z,994.64
2022-11-06T03:03:37.935Z,994.63
2022-11-06T03:04:37.932Z,994.67
2022-11-06T03:05:38.939Z,994.65
2022-11-06T03:06:37.918Z,994.63
2022-11-06T03:07:37.906Z,994.68
2022-11-06T03:08:37.902Z,994.66
2022-11-06T03:09:37.891Z,994.60
2022-11-06T03:10:37.882Z,994.61
2022-11-06T03:11:37.905Z,994.59
2022-11-06T03:12:37.863Z,994.64
2022-11-06T03:13:37.862Z,994.61
2022-11-06T03:14:37.853Z,994.49
2022-11-06T03:15:37.840Z,994.52
2022-11-06T03:16:37.865Z,994.52
2022-11-06T03:17:37.858Z,994.56
2022-11-06T03:18:37.823Z,994.79
2022-11-06T03:19:37.822Z,994.61
2022-11-06T03:20:37.817Z,994.61
2022-11-06T03:21:37.805Z,994.60
2022-11-06T03:22:37.838Z,994.65
2022-11-06T03:23:37.801Z,994.66
2022-11-06T03:24:37.793Z,994.72
2022-11-06T03:25:37.782Z,994.69
2022-11-06T03:26:37.782Z,994.67
2022-11-06T03:27:37.779Z,994.67
2022-11-06T03:28:37.765Z,994.73
2022-11-06T03:29:37.754Z,994.68
2022-11-06T03:30:37.749Z,994.71
2022-11-06T03:31:37.732Z,994.69
2022-11-06T03:32:37.741Z,994.56
2022-11-06T03:33:37.727Z,994.61
2022-11-06T03:34:37.740Z,994.61
2022-11-06T03:35:37.710Z,994.56
2022-11-06T03:36:37.706Z,994.60
2022-11-06T03:37:37.702Z,994.54
2022-11-06T03:38:42.002Z,994.49
2022-11-06T03:39:37.682Z,994.53
2022-11-06T03:40:37.675Z,994.59
2022-11-06T03:41:37.682Z,994.52
2022-11-06T03:42:37.671Z,994.48
2022-11-06T03:43:37.674Z,994.44
2022-11-06T03:44:37.651Z,994.44
2022-11-06T03:45:37.655Z,994.45
2022-11-06T03:46:37.643Z,994.39
2022-11-06T03:47:37.630Z,994.40
2022-11-06T03:48:37.635Z,994.42
2022-11-06T03:49:37.619Z,994.36
2022-11-06T03:50:37.627Z,994.41
2022-11-06T03:51:37.604Z,994.36
2022-11-06T03:52:37.599Z,994.33
2022-11-06T03:53:37.602Z,994.38
2022-11-06T03:54:37.582Z,994.44
2022-11-06T03:55:37.574Z,994.30
2022-11-06T03:56:37.573Z,994.36
2022-11-06T03:57:37.563Z,994.37
2022-11-06T03:58:37.633Z,994.37
2022-11-06T03:59:37.550Z,994.44
2022-11-06T04:00:37.538Z,994.44
2022-11-06T04:01:37.615Z,994.62
2022-11-06T04:02:37.673Z,994.52
2022-11-06T04:03:37.534Z,994.54
2022-11-06T04:04:37.522Z,994.56
2022-11-06T04:05:37.516Z,994.64
2022-11-06T04:06:37.506Z,994.58
2022-11-06T04:07:37.493Z,994.73
2022-11-06T04:08:37.686Z,994.57
2022-11-06T04:09:37.482Z,994.67
2022-11-06T04:10:37.478Z,994.66
2022-11-06T04:11:37.478Z,994.69
2022-11-06T04:12:37.474Z,994.59
2022-11-06T04:13:37.462Z,994.73
2022-11-06T04:14:37.471Z,994.70
2022-11-06T04:15:37.471Z,994.80
2022-11-06T04:16:37.450Z,994.84
2022-11-06T04:17:37.438Z,994.71
2022-11-06T04:18:37.429Z,994.69
2022-11-06T04:19:37.430Z,994.73
2022-11-06T04:20:37.418Z,994.72
2022-11-06T04:21:37.414Z,994.72
2022-11-06T04:22:37.402Z,994.86
2022-11-06T04:23:37.949Z,994.98
2022-11-06T04:24:38.406Z,994.71
2022-11-06T04:25:37.405Z,994.77
2022-11-06T04:26:37.375Z,994.87
2022-11-06T04:27:37.385Z,994.91
2022-11-06T04:28:37.372Z,994.70
2022-11-06T04:29:37.498Z,994.76
2022-11-06T04:30:37.348Z,994.70
2022-11-06T04:31:37.353Z,994.76
2022-11-06T04:32:37.336Z,994.90
2022-11-06T04:33:37.339Z,994.77
2022-11-06T04:34:37.338Z,994.67
2022-11-06T04:35:37.317Z,994.72
2022-11-06T04:36:37.314Z,994.73
2022-11-06T04:37:37.310Z,994.68
2022-11-06T04:38:37.318Z,994.72
2022-11-06T04:39:37.311Z,994.60
2022-11-06T04:40:37.293Z,994.61
2022-11-06T04:41:37.280Z,994.70
2022-11-06T04:42:37.279Z,994.65
2022-11-06T04:43:37.271Z,994.59
2022-11-06T04:44:37.273Z,994.63
2022-11-06T04:45:37.247Z,994.60
2022-11-06T04:46:37.249Z,994.63
2022-11-06T04:47:37.237Z,994.54
2022-11-06T04:48:37.237Z,994.55
2022-11-06T04:49:37.244Z,994.47
2022-11-06T04:50:37.217Z,994.41
2022-11-06T04:51:37.250Z,994.48
2022-11-06T04:52:37.205Z,994.37
2022-11-06T04:53:37.197Z,994.53
2022-11-06T04:54:37.194Z,994.40
2022-11-06T04:55:37.181Z,994.28
2022-11-06T04:56:41.319Z,994.26
2022-11-06T04:57:39.176Z,994.30
2022-11-06T04:58:37.173Z,994.17
2022-11-06T04:59:37.165Z,994.27
2022-11-06T05:00:37.198Z,994.30
2022-11-06T05:01:37.265Z,994.25
2022-11-06T05:02:37.151Z,994.25
2022-11-06T05:03:37.126Z,994.17
2022-11-06T05:04:38.145Z,994.23
2022-11-06T05:05:37.117Z,994.14
2022-11-06T05:06:37.109Z,994.21
2022-11-06T05:07:37.114Z,994.14
2022-11-06T05:08:37.102Z,994.28
2022-11-06T05:09:37.101Z,994.18
2022-11-06T05:10:37.089Z,994.26
2022-11-06T05:11:37.086Z,994.17
2022-11-06T05:12:37.077Z,994.18
2022-11-06T05:13:37.074Z,994.20
2022-11-06T05:14:37.069Z,994.25
2022-11-06T05:15:37.082Z,994.23
2022-11-06T05:16:37.057Z,994.11
2022-11-06T05:17:37.042Z,994.13
2022-11-06T05:18:37.039Z,994.22
2022-11-06T05:19:37.034Z,994.19
2022-11-06T05:20:37.038Z,994.25
2022-11-06T05:21:37.015Z,994.25
2022-11-06T05:22:37.011Z,994.27
2022-11-06T05:23:37.017Z,994.30
2022-11-06T05:24:37.005Z,994.24
2022-11-06T05:25:36.998Z,994.27
2022-11-06T05:26:36.992Z,994.20
2022-11-06T05:27:36.985Z,994.26
2022-11-06T05:28:36.994Z,994.16
2022-11-06T05:29:36.966Z,994.21
2022-11-06T05:30:36.956Z,994.23
2022-11-06T05:31:36.961Z,994.16
2022-11-06T05:32:36.961Z,994.13
2022-11-06T05:33:37.100Z,994.22
2022-11-06T05:34:36.944Z,994.27
2022-11-06T05:35:36.921Z,994.33
2022-11-06T05:36:36.929Z,994.24
2022-11-06T05:37:36.918Z,994.28
2022-11-06T05:38:36.918Z,994.37
2022-11-06T05:39:41.628Z,994.44
2022-11-06T05:40:38.906Z,994.35
2022-11-06T05:41:36.902Z,994.24
2022-11-06T05:42:36.913Z,994.25
2022-11-06T05:43:36.909Z,994.29
2022-11-06T05:44:36.933Z,994.30
2022-11-06T05:45:36.893Z,994.28
2022-11-06T05:46:52.295Z,994.34
2022-11-06T05:47:38.863Z,994.22
2022-11-06T05:48:36.855Z,994.27
2022-11-06T05:49:36.947Z,994.25
2022-11-06T05:50:36.857Z,994.23
2022-11-06T05:51:36.839Z,994.20
2022-11-06T05:52:36.831Z,994.23
2022-11-06T05:53:36.832Z,994.29
2022-11-06T05:54:36.814Z,994.18
2022-11-06T05:55:36.822Z,994.26
2022-11-06T05:56:36.802Z,994.19
2022-11-06T05:57:36.789Z,994.21
2022-11-06T05:58:37.809Z,994.17
2022-11-06T05:59:36.785Z,994.13
2022-11-06T06:00:36.777Z,994.15
2022-11-06T06:01:36.839Z,994.12
2022-11-06T06:02:36.995Z,994.08
2022-11-06T06:03:36.771Z,993.99
2022-11-06T06:04:36.761Z,994.08
2022-11-06T06:05:36.745Z,994.09
2022-11-06T06:06:36.733Z,994.14
2022-11-06T06:07:36.732Z,994.11
2022-11-06T06:08:36.730Z,994.12
2022-11-06T06:09:36.731Z,994.14
2022-11-06T06:10:36.714Z,994.08
2022-11-06T06:11:36.706Z,994.06
2022-11-06T06:12:36.701Z,994.12
2022-11-06T06:13:36.693Z,994.17
2022-11-06T06:14:36.689Z,994.09
2022-11-06T06:15:36.674Z,994.12
2022-11-06T06:16:36.681Z,994.16
2022-11-06T06:17:36.662Z,994.17
2022-11-06T06:18:36.648Z,994.22
2022-11-06T06:19:36.649Z,994.20
2022-11-06T06:20:36.641Z,994.17
2022-11-06T06:21:36.652Z,994.06
2022-11-06T06:22:36.653Z,994.24
2022-11-06T06:23:36.621Z,994.18
2022-11-06T06:24:36.643Z,994.10
2022-11-06T06:25:37.612Z,994.04
2022-11-06T06:26:36.601Z,994.02
2022-11-06T06:27:36.609Z,994.32
2022-11-06T06:28:36.581Z,993.99
2022-11-06T06:29:36.582Z,993.89
2022-11-06T06:30:36.573Z,994.00
2022-11-06T06:31:36.575Z,993.93
2022-11-06T06:32:36.604Z,994.05
2022-11-06T06:33:36.553Z,994.03
2022-11-06T06:34:36.555Z,994.02
2022-11-06T06:35:36.539Z,993.91
2022-11-06T06:36:36.533Z,993.86
2022-11-06T06:37:36.529Z,993.78
2022-11-06T06:38:36.618Z,993.84
2022-11-06T06:39:36.521Z,993.80
2022-11-06T06:40:36.513Z,993.87
2022-11-06T06:41:36.498Z,993.80
2022-11-06T06:42:36.493Z,993.81
2022-11-06T06:43:36.490Z,993.85
2022-11-06T06:44:36.518Z,993.82
2022-11-06T06:45:36.474Z,993.83
2022-11-06T06:46:36.467Z,993.81
2022-11-06T06:47:36.469Z,993.87
2022-11-06T06:48:36.459Z,993.82
2022-11-06T06:49:36.473Z,993.76
2022-11-06T06:50:36.451Z,993.79
2022-11-06T06:51:36.438Z,993.99
2022-11-06T06:52:36.420Z,993.92
2022-11-06T06:53:36.432Z,993.80
2022-11-06T06:54:36.437Z,993.82
2022-11-06T06:55:36.412Z,993.87
2022-11-06T06:56:36.405Z,993.89
2022-11-06T06:57:36.393Z,993.80
2022-11-06T06:58:37.393Z,993.76
2022-11-06T06:59:36.381Z,993.86
2022-11-06T07:00:36.409Z,993.81
2022-11-06T07:01:36.477Z,993.85
2022-11-06T07:02:36.364Z,993.89
2022-11-06T07:03:36.357Z,993.82
2022-11-06T07:04:36.353Z,993.82
2022-11-06T07:05:36.342Z,993.80
2022-11-06T07:06:36.340Z,993.86
2022-11-06T07:07:36.330Z,993.81
2022-11-06T07:08:36.321Z,993.81
2022-11-06T07:09:36.328Z,993.89
2022-11-06T07:10:36.304Z,993.97
2022-11-06T07:11:36.297Z,993.89
2022-11-06T07:12:36.301Z,993.94
2022-11-06T07:13:36.623Z,993.86
2022-11-06T07:14:36.310Z,993.73
2022-11-06T07:15:36.274Z,993.74
2022-11-06T07:16:36.268Z,993.76
2022-11-06T07:17:36.265Z,993.73
2022-11-06T07:18:36.268Z,993.80
2022-11-06T07:19:36.248Z,993.71
2022-11-06T07:20:36.263Z,993.71
2022-11-06T07:21:36.235Z,993.70
2022-11-06T07:22:37.581Z,993.63
2022-11-06T07:23:37.224Z,993.62
2022-11-06T07:24:36.214Z,993.65
2022-11-06T07:25:36.209Z,993.72
2022-11-06T07:26:36.217Z,993.57
2022-11-06T07:27:36.200Z,993.55
2022-11-06T07:28:36.201Z,993.62
2022-11-06T07:29:36.181Z,993.62
2022-11-06T07:30:36.184Z,993.68
2022-11-06T07:31:36.193Z,993.67
2022-11-06T07:32:36.168Z,993.65
2022-11-06T07:33:36.156Z,993.77
2022-11-06T07:34:36.142Z,993.74
2022-11-06T07:35:36.156Z,993.63
2022-11-06T07:36:36.141Z,993.61
2022-11-06T07:37:36.123Z,993.53
2022-11-06T07:38:36.144Z,993.58
2022-11-06T07:39:36.112Z,993.51
2022-11-06T07:40:36.094Z,993.54
2022-11-06T07:41:36.145Z,993.59
2022-11-06T07:42:40.713Z,993.70
2022-11-06T07:43:38.092Z,993.57
2022-11-06T07:44:36.087Z,993.55
2022-11-06T07:45:36.088Z,993.56
2022-11-06T07:46:36.081Z,993.63
2022-11-06T07:47:36.061Z,993.57
2022-11-06T07:48:36.044Z,993.57
2022-11-06T07:49:36.040Z,993.65
2022-11-06T07:50:36.064Z,993.58
2022-11-06T07:51:37.076Z,993.54
2022-11-06T07:52:36.012Z,993.64
2022-11-06T07:53:36.012Z,993.61
2022-11-06T07:54:36.012Z,993.64
2022-11-06T07:55:41.783Z,993.61
2022-11-06T07:56:38.007Z,993.58
2022-11-06T07:57:35.989Z,993.53
2022-11-06T07:58:35.972Z,993.53
2022-11-06T07:59:35.977Z,993.47
2022-11-06T08:00:36.026Z,993.50
2022-11-06T08:01:36.083Z,993.50
2022-11-06T08:02:36.038Z,993.50
2022-11-06T08:03:35.952Z,993.48
2022-11-06T08:04:35.941Z,993.48
2022-11-06T08:05:36.940Z,993.43
2022-11-06T08:06:35.960Z,993.45
2022-11-06T08:07:35.918Z,993.39
2022-11-06T08:08:35.924Z,993.47
2022-11-06T08:09:35.918Z,993.40
2022-11-06T08:10:35.896Z,993.47
2022-11-06T08:11:35.908Z,993.57
2022-11-06T08:12:35.905Z,993.43
2022-11-06T08:13:35.894Z,993.40
2022-11-06T08:14:41.108Z,993.41
2022-11-06T08:15:37.876Z,993.55
2022-11-06T08:16:35.869Z,993.47
2022-11-06T08:17:35.880Z,993.54
2022-11-06T08:18:35.857Z,993.27
2022-11-06T08:19:35.852Z,993.42
2022-11-06T08:20:35.849Z,993.48
2022-11-06T08:21:35.837Z,993.23
2022-11-06T08:22:35.830Z,993.24
2022-11-06T08:23:35.806Z,993.22
2022-11-06T08:24:35.819Z,993.29
2022-11-06T08:25:35.799Z,993.17
2022-11-06T08:26:35.800Z,993.15
2022-11-06T08:27:35.898Z,993.13
2022-11-06T08:28:35.804Z,993.12
2022-11-06T08:29:40.908Z,993.24
2022-11-06T08:30:37.777Z,993.16
2022-11-06T08:31:35.767Z,993.16
2022-11-06T08:32:35.754Z,993.15
2022-11-06T08:33:35.769Z,993.17
2022-11-06T08:34:35.741Z,993.13
2022-11-06T08:35:35.728Z,993.08
2022-11-06T08:36:35.723Z,993.13
2022-11-06T08:37:35.716Z,993.07
2022-11-06T08:38:35.752Z,993.08
2022-11-06T08:39:35.695Z,993.05
2022-11-06T08:40:35.695Z,993.06
2022-11-06T08:41:35.688Z,993.14
2022-11-06T08:42:35.685Z,992.98
2022-11-06T08:43:35.691Z,993.02
2022-11-06T08:44:35.667Z,992.92
2022-11-06T08:45:35.672Z,992.87
2022-11-06T08:46:35.659Z,992.87
2022-11-06T08:47:35.673Z,993.07
2022-11-06T08:48:35.644Z,993.03
2022-11-06T08:49:35.636Z,993.00
2022-11-06T08:50:35.628Z,992.98
2022-11-06T08:51:35.624Z,992.81
2022-11-06T08:52:35.628Z,992.87
2022-11-06T08:53:35.664Z,992.83
2022-11-06T08:54:35.607Z,992.80
2022-11-06T08:55:35.575Z,992.78
2022-11-06T08:56:36.576Z,992.96
2022-11-06T08:57:35.597Z,992.75
2022-11-06T08:58:35.568Z,992.77
2022-11-06T08:59:35.569Z,992.78
2022-11-06T09:00:35.560Z,992.85
2022-11-06T09:01:35.727Z,992.81
2022-11-06T09:02:35.624Z,992.72
2022-11-06T09:03:35.529Z,992.84
2022-11-06T09:04:41.077Z,992.68
2022-11-06T09:05:37.512Z,992.72
2022-11-06T09:06:35.512Z,992.78
2022-11-06T09:07:35.511Z,992.70
2022-11-06T09:08:35.515Z,992.75
2022-11-06T09:09:35.492Z,992.75
2022-11-06T09:10:35.484Z,992.79
2022-11-06T09:11:35.472Z,992.74
2022-11-06T09:12:35.485Z,992.83
2022-11-06T09:13:35.461Z,992.92
2022-11-06T09:14:35.451Z,992.91
2022-11-06T09:15:35.456Z,992.72
2022-11-06T09:16:35.447Z,992.90
2022-11-06T09:17:35.440Z,992.91
2022-11-06T09:18:35.455Z,992.85
2022-11-06T09:19:35.451Z,992.91
2022-11-06T09:20:35.456Z,992.79
2022-11-06T09:21:35.412Z,992.88
2022-11-06T09:22:35.408Z,992.87
2022-11-06T09:23:35.404Z,992.89
2022-11-06T09:24:57.657Z,992.87
2022-11-06T09:25:37.402Z,992.91
2022-11-06T09:26:35.380Z,992.89
2022-11-06T09:27:35.384Z,992.88
2022-11-06T09:28:35.388Z,992.90
2022-11-06T09:29:35.356Z,992.78
2022-11-06T09:30:35.436Z,992.82
2022-11-06T09:31:35.343Z,992.42
2022-11-06T09:32:35.336Z,992.73
2022-11-06T09:33:35.360Z,992.37
2022-11-06T09:34:35.325Z,992.70
2022-11-06T09:35:35.316Z,992.36
2022-11-06T09:36:35.321Z,992.29
2022-11-06T09:37:35.328Z,992.50
2022-11-06T09:38:35.306Z,992.53
2022-11-06T09:39:35.309Z,992.26
2022-11-06T09:40:35.293Z,992.45
2022-11-06T09:41:35.287Z,992.59
2022-11-06T09:42:35.275Z,992.53
2022-11-06T09:44:03.487Z,992.60
2022-11-06T09:44:37.276Z,992.51
2022-11-06T09:45:35.259Z,992.36
2022-11-06T09:46:35.254Z,992.32
2022-11-06T09:47:35.243Z,992.25
2022-11-06T09:48:35.431Z,992.35
2022-11-06T09:49:35.980Z,992.24
2022-11-06T09:50:35.225Z,992.10
2022-11-06T09:51:35.212Z,992.29
2022-11-06T09:52:35.225Z,992.22
2022-11-06T09:53:35.207Z,992.31
2022-11-06T09:54:35.227Z,992.20
2022-11-06T09:55:35.209Z,992.23
2022-11-06T09:56:35.188Z,992.34
2022-11-06T09:57:35.172Z,992.09
2022-11-06T09:58:35.190Z,992.24
2022-11-06T09:59:35.185Z,992.18
2022-11-06T10:00:35.156Z,992.16
2022-11-06T10:01:35.320Z,992.12
2022-11-06T10:02:35.186Z,992.29
2022-11-06T10:03:35.127Z,992.17
2022-11-06T10:04:35.270Z,992.20
2022-11-06T10:05:35.123Z,992.11
2022-11-06T10:06:35.121Z,992.41
2022-11-06T10:07:35.121Z,992.23
2022-11-06T10:08:35.088Z,991.99
2022-11-06T10:09:36.128Z,991.91
2022-11-06T10:10:35.091Z,992.21
2022-11-06T10:11:35.076Z,992.33
2022-11-06T10:12:35.076Z,992.23
2022-11-06T10:13:35.066Z,992.12
2022-11-06T10:14:35.080Z,992.13
2022-11-06T10:15:35.048Z,992.21
2022-11-06T10:16:35.089Z,992.15
2022-11-06T10:17:35.041Z,992.19
2022-11-06T10:18:36.030Z,992.04
2022-11-06T10:19:35.044Z,992.18
2022-11-06T10:20:35.016Z,992.09
2022-11-06T10:21:35.015Z,992.22
2022-11-06T10:22:34.999Z,992.19
2022-11-06T10:23:34.993Z,992.12
2022-11-06T10:24:34.989Z,992.09
2022-11-06T10:25:35.003Z,992.08
2022-11-06T10:26:34.973Z,992.25
2022-11-06T10:27:34.966Z,992.17
2022-11-06T10:28:34.973Z,992.09
2022-11-06T10:29:35.968Z,992.15
2022-11-06T10:30:34.963Z,991.96
2022-11-06T10:31:35.029Z,992.06
2022-11-06T10:32:34.944Z,991.97
2022-11-06T10:33:34.941Z,991.90
2022-11-06T10:34:34.927Z,991.94
2022-11-06T10:35:34.933Z,991.98
2022-11-06T10:36:35.466Z,991.86
2022-11-06T10:37:34.907Z,991.89
2022-11-06T10:38:34.901Z,992.00
2022-11-06T10:39:34.907Z,991.78
2022-11-06T10:40:34.888Z,991.90
2022-11-06T10:41:34.895Z,991.81
2022-11-06T10:42:37.990Z,991.70
2022-11-06T10:43:35.874Z,991.71
2022-11-06T10:44:34.911Z,991.83
2022-11-06T10:45:34.905Z,991.75
2022-11-06T10:46:34.865Z,991.65
2022-11-06T10:47:34.872Z,991.69
2022-11-06T10:48:40.171Z,991.56
2022-11-06T10:49:36.827Z,991.59
2022-11-06T10:50:34.829Z,991.52
2022-11-06T10:51:34.840Z,991.66
2022-11-06T10:52:35.405Z,991.74
2022-11-06T10:53:34.909Z,991.54
2022-11-06T10:54:34.801Z,991.52
2022-11-06T10:55:34.829Z,991.53
2022-11-06T10:56:34.920Z,991.60
2022-11-06T10:57:34.832Z,991.58
2022-11-06T10:58:35.563Z,991.58
2022-11-06T10:59:34.825Z,991.51
2022-11-06T11:00:34.768Z,991.66
2022-11-06T11:01:34.912Z,991.46
2022-11-06T11:02:34.822Z,991.42
2022-11-06T11:03:34.738Z,991.59
2022-11-06T11:04:34.815Z,991.40
2022-11-06T11:05:34.785Z,991.42
2022-11-06T11:06:34.790Z,991.41
2022-11-06T11:07:34.737Z,991.40
2022-11-06T11:08:35.520Z,991.29
2022-11-06T11:09:34.739Z,991.26
2022-11-06T11:10:34.688Z,991.24
2022-11-06T11:11:35.480Z,991.27
2022-11-06T11:12:34.702Z,991.22
2022-11-06T11:13:34.666Z,991.13
2022-11-06T11:14:34.741Z,990.83
2022-11-06T11:15:34.733Z,991.24
2022-11-06T11:16:34.713Z,990.94
2022-11-06T11:17:34.663Z,990.75
2022-11-06T11:18:34.680Z,991.09
2022-11-06T11:19:35.520Z,991.11
2022-11-06T11:20:34.657Z,991.13
2022-11-06T11:21:34.683Z,991.16
2022-11-06T11:22:34.619Z,991.04
2022-11-06T11:23:34.682Z,990.81
2022-11-06T11:24:34.639Z,991.05
2022-11-06T11:25:34.679Z,991.02
2022-11-06T11:26:34.605Z,990.96
2022-11-06T11:27:34.700Z,991.02
2022-11-06T11:28:34.639Z,990.93
2022-11-06T11:29:34.564Z,990.94
2022-11-06T11:30:34.575Z,990.96
2022-11-06T11:31:34.559Z,990.90
2022-11-06T11:32:34.540Z,990.86
2022-11-06T11:33:34.559Z,990.93
2022-11-06T11:34:34.528Z,990.85
2022-11-06T11:35:34.530Z,990.95
2022-11-06T11:36:34.532Z,990.98
2022-11-06T11:37:34.521Z,990.97
2022-11-06T11:38:34.523Z,990.71
2022-11-06T11:39:34.535Z,990.78
2022-11-06T11:40:34.515Z,990.77
2022-11-06T11:41:34.496Z,990.65
2022-11-06T11:42:34.490Z,990.72
2022-11-06T11:43:34.486Z,990.73
2022-11-06T11:44:34.482Z,990.69
2022-11-06T11:45:34.475Z,990.53
2022-11-06T11:46:34.486Z,990.54
2022-11-06T11:47:34.455Z,990.51
2022-11-06T11:48:34.468Z,990.48
2022-11-06T11:49:34.435Z,990.38
2022-11-06T11:50:34.448Z,990.43
2022-11-06T11:51:34.438Z,990.48
2022-11-06T11:52:34.428Z,990.42
2022-11-06T11:53:34.415Z,990.48
2022-11-06T11:54:34.415Z,990.34
2022-11-06T11:55:34.414Z,990.43
2022-11-06T11:57:03.160Z,990.43
2022-11-06T11:57:36.398Z,990.22
2022-11-06T11:58:34.395Z,990.30
2022-11-06T11:59:34.403Z,990.22
2022-11-06T12:00:34.390Z,990.12
2022-11-06T12:01:34.477Z,990.18
2022-11-06T12:02:34.533Z,990.19
2022-11-06T12:03:34.359Z,990.19
2022-11-06T12:04:34.354Z,990.10
2022-11-06T12:05:34.371Z,989.97
2022-11-06T12:06:34.378Z,990.06
2022-11-06T12:07:34.336Z,989.93
2022-11-06T12:08:34.319Z,989.89
2022-11-06T12:09:34.323Z,989.92
2022-11-06T12:10:34.318Z,989.87
2022-11-06T12:11:34.332Z,989.86
2022-11-06T12:12:34.300Z,989.75
2022-11-06T12:13:34.298Z,989.69
2022-11-06T12:14:34.301Z,989.65
2022-11-06T12:15:34.287Z,989.62
2022-11-06T12:16:34.279Z,989.59
2022-11-06T12:17:34.284Z,989.47
2022-11-06T12:18:34.258Z,989.27
2022-11-06T12:19:34.262Z,989.20
2022-11-06T12:20:34.248Z,989.21
2022-11-06T12:21:34.245Z,989.30
2022-11-06T12:22:34.260Z,989.33
2022-11-06T12:23:34.227Z,989.48
2022-11-06T12:24:34.226Z,989.35
2022-11-06T12:25:34.237Z,989.37
2022-11-06T12:26:34.212Z,989.30
2022-11-06T12:27:34.228Z,989.16
2022-11-06T12:28:34.196Z,989.10